Time;durP1;ratioP1;P1;durP2;ratioP2;P2;SDS_P1;SDS_P2;PMS_P1;PMS_P2;Temp;Humidity;BMP_temperature;BMP_pressure;BME280_temperature;BME280_humidity;BME280_pressure;Samples;Min_cycle;Max_cycle;Signal;HPM_P1;HPM_P2
2021/04/01 00:02:03;;;;;;;;;;;9.80;87.00;;;;;;5071282;28;19951;-74
2021/04/01 00:04:28;;;;;;;;;;;9.90;86.30;;;;;;5071356;28;19908;-74
2021/04/01 00:06:53;;;;;;;;;;;10.00;84.60;;;;;;5070154;28;19991;-74
2021/04/01 00:09:19;;;;;;;;;;;10.10;83.40;;;;;;5071088;28;19937;-75
2021/04/01 00:11:44;;;;;;;;;;;10.30;83.10;;;;;;5071145;28;19908;-74
2021/04/01 00:14:10;;;;;;;;;;;10.40;83.20;;;;;;5071138;28;19915;-74
2021/04/01 00:16:36;;;;;;;;;;;10.40;83.70;;;;;;5070063;28;19908;-74
2021/04/01 00:19:02;;;;;;;;;;;10.40;83.60;;;;;;5070726;28;19944;-74
2021/04/01 00:21:28;;;;;;;;;;;10.40;84.10;;;;;;5070021;28;20002;-74
2021/04/01 00:23:54;;;;;;;;;;;10.30;84.70;;;;;;5070800;28;20007;-74
2021/04/01 00:26:19;;;;;;;;;;;10.30;85.10;;;;;;5069999;28;19959;-74
2021/04/01 00:28:45;;;;;;;;;;;10.20;85.30;;;;;;5070828;28;20320;-74
2021/04/01 00:31:10;;;;;;;;;;;10.20;85.20;;;;;;5071138;28;19915;-74
2021/04/01 00:33:36;;;;;;;;;;;10.10;85.50;;;;;;5070796;28;19912;-74
2021/04/01 00:36:02;;;;;;;;;;;10.10;84.90;;;;;;5069757;28;19960;-74
2021/04/01 00:38:27;;;;;;;;;;;10.10;84.60;;;;;;5067847;28;20377;-74
2021/04/01 00:40:52;;;;;;;;;;;10.00;84.60;;;;;;5070334;28;20254;-74
2021/04/01 00:43:18;;;;;;;;;;;10.00;84.90;;;;;;5070778;28;19991;-74
2021/04/01 00:45:43;;;;;;;;;;;10.00;85.90;;;;;;5070135;28;20269;-74
2021/04/01 00:48:09;;;;;;;;;;;9.90;86.50;;;;;;5070528;28;20008;-74
2021/04/01 00:50:35;;;;;;;;;;;9.90;87.60;;;;;;5070734;28;19908;-74
2021/04/01 00:53:00;;;;;;;;;;;9.70;88.70;;;;;;5069483;28;19912;-74
2021/04/01 00:55:26;;;;;;;;;;;9.60;89.10;;;;;;5070473;28;20055;-74
2021/04/01 00:57:53;;;;;;;;;;;9.50;89.30;;;;;;5069799;28;19915;-74
2021/04/01 01:00:22;;;;;;;;;;;9.50;89.50;;;;;;5070767;28;19915;-74
2021/04/01 01:02:47;;;;;;;;;;;9.40;89.30;;;;;;5070183;28;19913;-74
2021/04/01 01:05:14;;;;;;;;;;;9.30;89.40;;;;;;5069323;28;19920;-74
2021/04/01 01:07:39;;;;;;;;;;;9.20;89.20;;;;;;5069458;28;19909;-74
2021/04/01 01:10:06;;;;;;;;;;;9.10;89.30;;;;;;5072773;28;20049;-75
2021/04/01 01:12:31;;;;;;;;;;;9.10;89.60;;;;;;5074415;28;20015;-74
2021/04/01 01:14:57;;;;;;;;;;;9.10;90.10;;;;;;5074314;28;20015;-74
2021/04/01 01:17:22;;;;;;;;;;;9.00;90.30;;;;;;5073347;28;19912;-74
2021/04/01 01:19:52;;;;;;;;;;;8.90;90.20;;;;;;5074667;28;19912;-74
2021/04/01 01:22:18;;;;;;;;;;;8.90;90.20;;;;;;5072938;28;19912;-74
2021/04/01 01:24:44;;;;;;;;;;;8.90;90.30;;;;;;5073985;28;19919;-74
2021/04/01 01:27:09;;;;;;;;;;;8.90;90.50;;;;;;5072776;28;19995;-75
2021/04/01 01:29:35;;;;;;;;;;;8.80;90.60;;;;;;5074206;28;19908;-74
2021/04/01 01:32:00;;;;;;;;;;;8.80;90.70;;;;;;5073877;28;19909;-74
2021/04/01 01:34:26;;;;;;;;;;;8.80;90.80;;;;;;5072904;28;19909;-74
2021/04/01 01:36:52;;;;;;;;;;;8.70;90.90;;;;;;5072740;28;19943;-74
2021/04/01 01:39:17;;;;;;;;;;;8.60;91.20;;;;;;5069456;28;20731;-74
2021/04/01 01:41:43;;;;;;;;;;;8.60;91.50;;;;;;5074068;28;20396;-74
2021/04/01 01:44:08;;;;;;;;;;;8.50;91.80;;;;;;5074300;28;19958;-74
2021/04/01 01:46:34;;;;;;;;;;;8.40;92.10;;;;;;5072893;28;20362;-74
2021/04/01 01:48:59;;;;;;;;;;;8.40;92.40;;;;;;5073471;28;20045;-74
2021/04/01 01:51:26;;;;;;;;;;;8.40;92.50;;;;;;5072551;28;19908;-74
2021/04/01 01:53:51;;;;;;;;;;;8.30;92.80;;;;;;5073690;28;19908;-74
2021/04/01 01:56:18;;;;;;;;;;;8.30;92.90;;;;;;5072489;28;20388;-74
2021/04/01 01:58:43;;;;;;;;;;;8.30;93.20;;;;;;5073641;28;20009;-74
2021/04/01 02:01:09;;;;;;;;;;;8.20;93.40;;;;;;5073517;28;19974;-74
2021/04/01 02:03:34;;;;;;;;;;;8.10;93.70;;;;;;5073347;28;19920;-74
2021/04/01 02:05:59;;;;;;;;;;;8.10;93.70;;;;;;5072315;28;20419;-74
2021/04/01 02:08:25;;;;;;;;;;;8.10;93.80;;;;;;5073387;28;19908;-74
2021/04/01 02:10:51;;;;;;;;;;;8.20;94.00;;;;;;5073382;28;19910;-74
2021/04/01 02:13:18;;;;;;;;;;;8.20;94.00;;;;;;5073115;28;19909;-74
2021/04/01 02:15:45;;;;;;;;;;;8.20;94.10;;;;;;5072363;28;20293;-74
2021/04/01 02:18:12;;;;;;;;;;;8.30;94.20;;;;;;5072825;28;20366;-74
2021/04/01 02:20:42;;;;;;;;;;;8.30;94.30;;;;;;5072615;28;19913;-74
2021/04/01 02:23:08;;;;;;;;;;;8.40;94.50;;;;;;5072118;28;19916;-74
2021/04/01 02:25:34;;;;;;;;;;;8.40;94.50;;;;;;5072586;28;19912;-74
2021/04/01 02:28:00;;;;;;;;;;;8.30;94.60;;;;;;5072616;28;19908;-74
2021/04/01 02:30:26;;;;;;;;;;;8.30;94.80;;;;;;5073147;28;19908;-74
2021/04/01 02:32:51;;;;;;;;;;;8.30;94.90;;;;;;5072666;28;19951;-74
2021/04/01 02:35:17;;;;;;;;;;;8.30;95.10;;;;;;5072879;28;19916;-73
2021/04/01 02:37:42;;;;;;;;;;;8.30;95.20;;;;;;5071783;28;19915;-73
2021/04/01 02:40:08;;;;;;;;;;;8.30;95.30;;;;;;5072874;28;20369;-74
2021/04/01 02:42:34;;;;;;;;;;;8.20;95.50;;;;;;5072729;28;20305;-74
2021/04/01 02:44:59;;;;;;;;;;;8.30;95.60;;;;;;5072835;28;19908;-73
2021/04/01 02:47:25;;;;;;;;;;;8.30;95.60;;;;;;5071209;28;19908;-74
2021/04/01 02:49:50;;;;;;;;;;;8.20;95.80;;;;;;5072307;28;20031;-73
2021/04/01 02:52:15;;;;;;;;;;;8.10;96.10;;;;;;5071423;28;19919;-74
2021/04/01 02:54:41;;;;;;;;;;;8.10;96.40;;;;;;5072374;28;19912;-74
2021/04/01 02:57:16;;;;;;;;;;;8.00;96.60;;;;;;5071497;28;19959;-74
2021/04/01 02:59:43;;;;;;;;;;;8.00;96.90;;;;;;5072313;28;19912;-74
2021/04/01 03:02:10;;;;;;;;;;;7.90;97.10;;;;;;5072226;28;19912;-74
2021/04/01 03:04:35;;;;;;;;;;;7.90;97.40;;;;;;5072178;28;19909;-74
2021/04/01 03:07:01;;;;;;;;;;;7.90;97.60;;;;;;5071428;28;20298;-73
2021/04/01 03:09:26;;;;;;;;;;;7.90;97.80;;;;;;5072127;28;19936;-74
2021/04/01 03:11:52;;;;;;;;;;;7.90;97.80;;;;;;5072142;28;19912;-74
2021/04/01 03:14:17;;;;;;;;;;;7.90;98.00;;;;;;5072093;28;20285;-75
2021/04/01 03:16:43;;;;;;;;;;;8.00;98.00;;;;;;5071184;28;19995;-74
2021/04/01 03:19:08;;;;;;;;;;;7.90;98.10;;;;;;5071577;28;19909;-74
2021/04/01 03:21:34;;;;;;;;;;;7.90;98.30;;;;;;5070941;28;19919;-74
2021/04/01 03:23:59;;;;;;;;;;;7.90;98.50;;;;;;5071699;28;20337;-73
2021/04/01 03:26:26;;;;;;;;;;;7.80;98.60;;;;;;5071063;28;19920;-74
2021/04/01 03:28:52;;;;;;;;;;;7.70;98.80;;;;;;5070531;28;19908;-74
2021/04/01 03:31:17;;;;;;;;;;;7.60;99.30;;;;;;5071077;28;19916;-73
2021/04/01 03:33:43;;;;;;;;;;;7.50;99.70;;;;;;5070840;28;19917;-74
2021/04/01 03:36:08;;;;;;;;;;;7.50;99.90;;;;;;5070428;28;20016;-74
2021/04/01 03:38:34;;;;;;;;;;;7.50;99.90;;;;;;5071585;28;19915;-74
2021/04/01 03:40:59;;;;;;;;;;;7.50;99.90;;;;;;5071717;28;19913;-74
2021/04/01 03:43:26;;;;;;;;;;;7.50;99.90;;;;;;5071610;28;19944;-74
2021/04/01 03:45:52;;;;;;;;;;;7.50;99.90;;;;;;5070491;28;19912;-74
2021/04/01 03:48:17;;;;;;;;;;;7.50;99.90;;;;;;5070505;28;19914;-74
2021/04/01 03:50:43;;;;;;;;;;;7.50;99.90;;;;;;5071497;28;19952;-73
2021/04/01 03:53:09;;;;;;;;;;;7.50;99.90;;;;;;5068967;28;19995;-74
2021/04/01 03:55:41;;;;;;;;;;;7.50;99.90;;;;;;5070861;28;19915;-74
2021/04/01 04:00:36;;;;;;;;;;;7.40;99.90;;;;;;5071262;28;19931;-74
2021/04/01 04:16:26;;;;;;;;;;;7.40;99.90;;;;;;5070106;28;19908;-73
2021/04/01 04:18:51;;;;;;;;;;;7.30;99.90;;;;;;5070737;28;19909;-74
2021/04/01 04:21:17;;;;;;;;;;;7.30;99.90;;;;;;5069811;28;20258;-74
2021/04/01 04:23:47;;;;;;;;;;;7.30;99.90;;;;;;5070624;28;19965;-74
2021/04/01 04:26:14;;;;;;;;;;;7.20;99.90;;;;;;5069925;28;19962;-74
2021/04/01 04:28:40;;;;;;;;;;;7.30;99.90;;;;;;5070957;28;19978;-74
2021/04/01 04:31:06;;;;;;;;;;;7.20;99.90;;;;;;5070799;28;19915;-74
2021/04/01 04:33:32;;;;;;;;;;;7.20;99.90;;;;;;5070283;28;20383;-74
2021/04/01 04:35:57;;;;;;;;;;;7.10;99.90;;;;;;5069569;28;19916;-74
2021/04/01 04:38:23;;;;;;;;;;;7.10;99.90;;;;;;5070442;28;19912;-73
2021/04/01 04:40:54;;;;;;;;;;;7.10;99.90;;;;;;5070789;28;19977;-74
2021/04/01 04:43:19;;;;;;;;;;;7.00;99.90;;;;;;5072696;28;19980;-73
2021/04/01 04:45:45;;;;;;;;;;;7.00;99.90;;;;;;5076460;28;19909;-73
2021/04/01 04:48:10;;;;;;;;;;;7.00;99.90;;;;;;5077047;28;19908;-74
2021/04/01 04:50:36;;;;;;;;;;;7.00;99.90;;;;;;5077180;28;20370;-74
2021/04/01 04:53:01;;;;;;;;;;;7.00;99.90;;;;;;5076072;28;19912;-74
2021/04/01 04:55:27;;;;;;;;;;;7.00;99.90;;;;;;5077151;28;19909;-74
2021/04/01 05:05:47;;;;;;;;;;;7.00;99.90;;;;;;5076778;28;20326;-73
2021/04/01 05:08:12;;;;;;;;;;;7.00;99.90;;;;;;5077042;28;19999;-74
2021/04/01 05:10:38;;;;;;;;;;;7.10;99.90;;;;;;5077139;28;19915;-73
2021/04/01 05:13:10;;;;;;;;;;;7.00;99.90;;;;;;5077246;28;19913;-74
2021/04/01 05:15:41;;;;;;;;;;;6.90;99.90;;;;;;5076508;28;19913;-73
2021/04/01 05:18:16;;;;;;;;;;;6.80;99.90;;;;;;5076922;28;19969;-73
2021/04/01 05:20:42;;;;;;;;;;;6.80;99.90;;;;;;5077040;28;20001;-74
2021/04/01 05:23:25;;;;;;;;;;;6.90;99.90;;;;;;5075983;28;19908;-73
2021/04/01 05:25:51;;;;;;;;;;;6.90;99.90;;;;;;5076145;28;19955;-74
2021/04/01 05:28:31;;;;;;;;;;;7.00;99.90;;;;;;5076591;28;19923;-74
2021/04/01 05:30:58;;;;;;;;;;;7.10;99.90;;;;;;5077053;28;19909;-74
2021/04/01 05:33:27;;;;;;;;;;;7.10;99.90;;;;;;5076687;28;19920;-73
2021/04/01 05:35:53;;;;;;;;;;;7.20;99.90;;;;;;5075699;28;19927;-74
2021/04/01 05:38:18;;;;;;;;;;;7.20;99.90;;;;;;5076810;28;20301;-74
2021/04/01 05:40:44;;;;;;;;;;;7.30;99.90;;;;;;5076651;28;19920;-73
2021/04/01 05:43:18;;;;;;;;;;;7.40;99.90;;;;;;5075752;28;19916;-73
2021/04/01 05:45:52;;;;;;;;;;;7.50;99.90;;;;;;5067121;28;19995;-73
2021/04/01 06:02:02;;;;;;;;;;;8.00;99.90;;;;;;5073512;28;19938;-74
2021/04/01 06:04:42;;;;;;;;;;;8.10;99.90;;;;;;5073076;28;19916;-74
2021/04/01 06:07:26;;;;;;;;;;;8.10;99.90;;;;;;5071132;28;19909;-74
2021/04/01 06:09:55;;;;;;;;;;;8.20;99.90;;;;;;5073406;28;20086;-73
2021/04/01 06:12:20;;;;;;;;;;;8.30;99.90;;;;;;5073430;28;19931;-73
2021/04/01 06:14:46;;;;;;;;;;;8.40;99.90;;;;;;5069745;28;20375;-74
2021/04/01 06:17:15;;;;;;;;;;;8.50;99.90;;;;;;5068217;28;19912;-73
2021/04/01 06:19:42;;;;;;;;;;;8.60;99.90;;;;;;5072813;28;19908;-74
2021/04/01 06:22:09;;;;;;;;;;;8.70;99.90;;;;;;5073096;28;19919;-74
2021/04/01 06:24:36;;;;;;;;;;;8.80;99.90;;;;;;5069667;28;20074;-74
2021/04/01 06:27:13;;;;;;;;;;;8.90;99.90;;;;;;5067509;28;19940;-74
2021/04/01 06:29:40;;;;;;;;;;;9.10;99.90;;;;;;5072401;28;20362;-74
2021/04/01 06:32:18;;;;;;;;;;;9.20;99.90;;;;;;5067050;28;20282;-74
2021/04/01 06:34:43;;;;;;;;;;;9.30;99.90;;;;;;5061644;28;19917;-74
2021/04/01 06:37:55;;;;;;;;;;;9.40;99.90;;;;;;5061160;28;20273;-74
2021/04/01 06:40:08;;;;;;;;;;;9.60;99.90;;;;;;5061982;28;19940;-74
2021/04/01 06:42:51;;;;;;;;;;;9.70;99.90;;;;;;5069905;28;20322;-73
2021/04/01 06:45:18;;;;;;;;;;;9.90;99.90;;;;;;5072465;28;19908;-74
2021/04/01 06:47:45;;;;;;;;;;;10.00;99.90;;;;;;5070362;28;20369;-74
2021/04/01 06:50:20;;;;;;;;;;;10.10;99.90;;;;;;5072604;28;19915;-74
2021/04/01 06:52:49;;;;;;;;;;;10.30;99.90;;;;;;5072577;28;19913;-74
2021/04/01 06:55:41;;;;;;;;;;;10.50;99.90;;;;;;5072687;28;20004;-74
2021/04/01 06:58:29;;;;;;;;;;;10.80;99.90;;;;;;5072536;28;20264;-74
2021/04/01 07:01:07;;;;;;;;;;;11.10;99.90;;;;;;5072447;28;19912;-74
2021/04/01 07:03:36;;;;;;;;;;;11.40;99.90;;;;;;5072123;28;19961;-74
2021/04/01 07:06:04;;;;;;;;;;;11.80;99.90;;;;;;5070609;28;19908;-74
2021/04/01 07:08:45;;;;;;;;;;;12.10;99.90;;;;;;5059861;28;19916;-74
2021/04/01 07:11:31;;;;;;;;;;;12.40;99.90;;;;;;5066022;28;19920;-74
2021/04/01 07:14:17;;;;;;;;;;;12.70;99.90;;;;;;5070723;28;19997;-74
2021/04/01 07:30:59;;;;;;;;;;;13.90;99.50;;;;;;5071125;28;19915;-74
2021/04/01 07:47:26;;;;;;;;;;;16.70;95.40;;;;;;5065483;28;19915;-75
2021/04/01 07:49:53;;;;;;;;;;;18.10;94.00;;;;;;5063258;28;19913;-75
2021/04/01 07:52:22;;;;;;;;;;;19.30;92.70;;;;;;5074763;28;19908;-75
2021/04/01 08:02:49;;;;;;;;;;;22.40;81.70;;;;;;5069936;28;20308;-75
2021/04/01 08:05:21;;;;;;;;;;;22.80;81.50;;;;;;5049792;28;19940;-75
2021/04/01 08:07:54;;;;;;;;;;;23.20;78.60;;;;;;5069867;28;19944;-76
2021/04/01 08:10:22;;;;;;;;;;;23.70;77.90;;;;;;5064407;28;19908;-76
2021/04/01 08:12:50;;;;;;;;;;;24.20;76.30;;;;;;5065107;28;19915;-76
2021/04/01 08:15:23;;;;;;;;;;;24.80;71.10;;;;;;5072414;28;20002;-76
2021/04/01 08:17:54;;;;;;;;;;;25.20;71.50;;;;;;5060010;28;20054;-76
2021/04/01 08:20:22;;;;;;;;;;;25.50;70.50;;;;;;5074630;28;19892;-75
2021/04/01 08:22:53;;;;;;;;;;;25.70;66.50;;;;;;5063709;28;19914;-75
2021/04/01 08:25:20;;;;;;;;;;;25.60;67.60;;;;;;5080267;28;20340;-75
2021/04/01 08:27:57;;;;;;;;;;;25.40;67.20;;;;;;5064807;28;19966;-76
2021/04/01 08:35:34;;;;;;;;;;;25.10;64.20;;;;;;5055800;28;19921;-76
2021/04/01 08:38:13;;;;;;;;;;;25.20;64.60;;;;;;5064834;28;20440;-76
2021/04/01 08:40:40;;;;;;;;;;;25.50;63.20;;;;;;5066334;28;19917;-76
2021/04/01 08:43:06;;;;;;;;;;;25.80;59.10;;;;;;5066569;28;19919;-76
2021/04/01 08:45:50;;;;;;;;;;;26.00;59.40;;;;;;5069007;28;19909;-76
2021/04/01 08:48:34;;;;;;;;;;;26.30;58.30;;;;;;5071535;28;20262;-76
2021/04/01 08:51:18;;;;;;;;;;;26.60;57.20;;;;;;5060307;28;19908;-76
2021/04/01 08:54:00;;;;;;;;;;;27.00;57.00;;;;;;5057114;28;19969;-76
2021/04/01 08:56:27;;;;;;;;;;;27.30;52.90;;;;;;5069240;28;19908;-76
2021/04/01 08:58:58;;;;;;;;;;;27.40;54.30;;;;;;5070365;28;19920;-76
2021/04/01 09:01:26;;;;;;;;;;;27.60;53.50;;;;;;5070390;28;19920;-77
2021/04/01 09:03:52;;;;;;;;;;;27.80;54.40;;;;;;5064464;28;20323;-77
2021/04/01 09:06:22;;;;;;;;;;;28.10;52.60;;;;;;5050962;28;20008;-77
2021/04/01 09:09:10;;;;;;;;;;;28.50;53.40;;;;;;5070188;28;19908;-77
2021/04/01 09:14:15;;;;;;;;;;;29.40;49.30;;;;;;5069296;28;20272;-76
2021/04/01 09:16:48;;;;;;;;;;;29.30;48.90;;;;;;5069171;28;20003;-77
2021/04/01 09:19:24;;;;;;;;;;;29.30;50.30;;;;;;5070195;28;19974;-77
2021/04/01 09:21:51;;;;;;;;;;;29.30;50.70;;;;;;5068599;28;19920;-77
2021/04/01 09:24:16;;;;;;;;;;;29.30;51.40;;;;;;5070185;28;19909;-77
2021/04/01 09:26:46;;;;;;;;;;;29.40;50.50;;;;;;5067888;28;19916;-76
2021/04/01 09:29:12;;;;;;;;;;;29.30;47.80;;;;;;5069585;28;19908;-77
2021/04/01 09:31:55;;;;;;;;;;;29.10;50.90;;;;;;5072538;28;20471;-77
2021/04/01 09:34:21;;;;;;;;;;;28.90;51.10;;;;;;5073084;28;20396;-77
2021/04/01 09:36:47;;;;;;;;;;;28.90;50.30;;;;;;5072774;28;20030;-76
2021/04/01 09:39:25;;;;;;;;;;;28.90;52.50;;;;;;5073808;28;20257;-77
2021/04/01 09:42:05;;;;;;;;;;;28.80;49.30;;;;;;5073597;28;19912;-77
2021/04/01 09:44:30;;;;;;;;;;;28.50;50.10;;;;;;5072496;28;19908;-76
2021/04/01 09:46:59;;;;;;;;;;;28.20;48.90;;;;;;5072930;28;20484;-77
2021/04/01 09:49:27;;;;;;;;;;;27.90;50.70;;;;;;5073333;28;19960;-77
2021/04/01 09:51:53;;;;;;;;;;;27.60;48.80;;;;;;5073210;28;19995;-77
2021/04/01 09:54:19;;;;;;;;;;;27.10;52.30;;;;;;5073234;28;19981;-76
2021/04/01 09:56:54;;;;;;;;;;;26.80;52.30;;;;;;5072451;28;20400;-77
2021/04/01 09:59:20;;;;;;;;;;;26.60;52.00;;;;;;5073120;28;19995;-77
2021/04/01 10:01:46;;;;;;;;;;;26.50;52.30;;;;;;5071867;28;20011;-77
2021/04/01 10:04:15;;;;;;;;;;;26.20;51.30;;;;;;5073161;28;20061;-77
2021/04/01 10:06:49;;;;;;;;;;;25.90;52.10;;;;;;5072499;28;20006;-77
2021/04/01 10:09:21;;;;;;;;;;;25.70;52.80;;;;;;5073903;28;19919;-77
2021/04/01 10:11:53;;;;;;;;;;;25.60;53.80;;;;;;5073138;28;20004;-77
2021/04/01 10:14:19;;;;;;;;;;;25.90;53.90;;;;;;5071021;28;19908;-77
2021/04/01 10:16:49;;;;;;;;;;;26.40;54.20;;;;;;5072141;28;19931;-77
2021/04/01 10:19:15;;;;;;;;;;;26.80;52.50;;;;;;5071082;28;20009;-77
2021/04/01 10:21:46;;;;;;;;;;;26.90;50.70;;;;;;5066204;28;19946;-77
2021/04/01 10:24:27;;;;;;;;;;;27.10;51.00;;;;;;5062688;28;19916;-77
2021/04/01 10:26:59;;;;;;;;;;;27.30;51.60;;;;;;5070403;28;19947;-77
2021/04/01 10:29:57;;;;;;;;;;;27.70;52.30;;;;;;5060305;28;19924;-77
2021/04/01 10:32:14;;;;;;;;;;;28.10;50.60;;;;;;5072423;28;19997;-77
2021/04/01 10:34:51;;;;;;;;;;;28.20;50.60;;;;;;5070949;28;20373;-77
2021/04/01 10:37:18;;;;;;;;;;;28.50;48.90;;;;;;5071790;28;19916;-77
2021/04/01 10:39:44;;;;;;;;;;;28.90;48.30;;;;;;5072464;28;19952;-77
2021/04/01 10:42:11;;;;;;;;;;;29.20;49.40;;;;;;5071902;28;19955;-77
2021/04/01 10:44:38;;;;;;;;;;;29.50;48.50;;;;;;5070563;28;19916;-77
2021/04/01 10:47:04;;;;;;;;;;;29.80;47.70;;;;;;5071295;28;20392;-77
2021/04/01 10:49:36;;;;;;;;;;;29.90;46.60;;;;;;5072394;28;20435;-77
2021/04/01 10:52:03;;;;;;;;;;;30.00;47.40;;;;;;5072322;28;19995;-77
2021/04/01 10:54:39;;;;;;;;;;;30.00;46.00;;;;;;5071994;28;20365;-77
2021/04/01 10:57:06;;;;;;;;;;;30.20;46.70;;;;;;5062314;28;20003;-77
2021/04/01 10:59:35;;;;;;;;;;;30.50;48.00;;;;;;5061595;28;19916;-77
2021/04/01 11:02:02;;;;;;;;;;;30.80;45.10;;;;;;5067787;28;19913;-77
2021/04/01 11:04:29;;;;;;;;;;;30.80;43.80;;;;;;5063354;28;19909;-77
2021/04/01 11:06:56;;;;;;;;;;;30.40;44.10;;;;;;5061973;28;19924;-77
2021/04/01 11:09:25;;;;;;;;;;;30.40;44.20;;;;;;5071712;28;19992;-77
2021/04/01 11:14:35;;;;;;;;;;;30.90;46.30;;;;;;5070910;28;19923;-77
2021/04/01 11:17:01;;;;;;;;;;;31.20;44.70;;;;;;5070622;28;19908;-77
2021/04/01 11:19:27;;;;;;;;;;;31.10;43.90;;;;;;5060075;28;20412;-77
2021/04/01 11:21:54;;;;;;;;;;;30.70;43.70;;;;;;5051049;28;19923;-77
2021/04/01 11:24:29;;;;;;;;;;;30.30;44.60;;;;;;5051051;28;20282;-77
2021/04/01 11:26:55;;;;;;;;;;;29.80;47.00;;;;;;5050493;28;19909;-76
2021/04/01 11:29:22;;;;;;;;;;;29.60;45.60;;;;;;5050372;28;19915;-77
2021/04/01 11:31:48;;;;;;;;;;;29.90;45.10;;;;;;5051685;28;19909;-77
2021/04/01 11:34:13;;;;;;;;;;;29.90;44.70;;;;;;5051515;28;19917;-77
2021/04/01 11:36:42;;;;;;;;;;;29.70;43.90;;;;;;5050365;28;19920;-77
2021/04/01 11:39:36;;;;;;;;;;;29.70;46.50;;;;;;5051619;28;19916;-78
2021/04/01 11:41:53;;;;;;;;;;;29.60;46.30;;;;;;5051237;28;20183;-78
2021/04/01 11:44:19;;;;;;;;;;;29.40;46.70;;;;;;5060995;28;19924;-77
2021/04/01 11:46:44;;;;;;;;;;;29.40;45.80;;;;;;5060171;28;19926;-77
2021/04/01 11:49:10;;;;;;;;;;;29.60;45.80;;;;;;5062705;28;20011;-77
2021/04/01 11:51:36;;;;;;;;;;;29.80;45.30;;;;;;5069655;28;19908;-77
2021/04/01 11:54:03;;;;;;;;;;;29.90;46.30;;;;;;5067195;28;20389;-77
2021/04/01 11:56:36;;;;;;;;;;;30.10;45.60;;;;;;5069778;28;19908;-76
2021/04/01 11:59:08;;;;;;;;;;;29.80;45.90;;;;;;5071318;28;19909;-76
2021/04/01 12:01:35;;;;;;;;;;;29.20;45.40;;;;;;5071440;28;19919;-76
2021/04/01 12:04:11;;;;;;;;;;;29.30;47.30;;;;;;5068535;28;19908;-76
2021/04/01 12:06:38;;;;;;;;;;;29.60;46.10;;;;;;5052068;28;19977;-76
2021/04/01 12:09:04;;;;;;;;;;;29.40;45.30;;;;;;5063953;28;19913;-76
2021/04/01 12:11:40;;;;;;;;;;;29.10;44.20;;;;;;5061445;28;20313;-76
2021/04/01 12:14:09;;;;;;;;;;;28.50;45.70;;;;;;5077175;28;19908;-77
2021/04/01 12:16:35;;;;;;;;;;;28.20;47.60;;;;;;5089849;28;20397;-77
2021/04/01 12:19:01;;;;;;;;;;;27.90;47.60;;;;;;5089800;28;19915;-77
2021/04/01 12:21:26;;;;;;;;;;;27.70;46.60;;;;;;5091342;28;19912;-78
2021/04/01 12:23:53;;;;;;;;;;;27.30;48.10;;;;;;5091251;28;20373;-77
2021/04/01 12:26:19;;;;;;;;;;;27.00;47.70;;;;;;5089859;28;19912;-77
2021/04/01 12:28:56;;;;;;;;;;;26.50;49.30;;;;;;5090807;28;19912;-77
2021/04/01 12:31:51;;;;;;;;;;;26.20;50.10;;;;;;5090516;28;20362;-77
2021/04/01 12:34:23;;;;;;;;;;;26.00;50.10;;;;;;5090275;28;19912;-76
2021/04/01 12:36:49;;;;;;;;;;;25.50;51.10;;;;;;5068986;28;19923;-77
2021/04/01 12:39:15;;;;;;;;;;;25.20;51.00;;;;;;5065314;28;19968;-76
2021/04/01 12:41:43;;;;;;;;;;;25.00;52.40;;;;;;5070640;28;19913;-75
2021/04/01 12:44:09;;;;;;;;;;;24.90;51.50;;;;;;5069573;28;19955;-76
2021/04/01 12:46:36;;;;;;;;;;;24.90;51.90;;;;;;5077154;28;19958;-75
2021/04/01 12:49:02;;;;;;;;;;;25.00;51.00;;;;;;5070535;28;19909;-75
2021/04/01 12:51:28;;;;;;;;;;;25.10;51.70;;;;;;5071179;28;19961;-76
2021/04/01 12:54:15;;;;;;;;;;;25.00;50.80;;;;;;5071039;28;19916;-77
2021/04/01 12:56:46;;;;;;;;;;;25.00;51.00;;;;;;5069595;28;19908;-76
2021/04/01 12:59:19;;;;;;;;;;;24.70;50.80;;;;;;5060920;28;20401;-76
2021/04/01 13:01:48;;;;;;;;;;;24.40;52.20;;;;;;5060885;28;19959;-77
2021/04/01 13:04:14;;;;;;;;;;;24.30;50.70;;;;;;5064187;28;20366;-76
2021/04/01 13:11:50;;;;;;;;;;;24.30;50.80;;;;;;5074989;28;19989;-76
2021/04/01 13:14:15;;;;;;;;;;;24.30;51.10;;;;;;5081620;28;19912;-76
2021/04/01 13:16:41;;;;;;;;;;;24.20;50.60;;;;;;5077150;28;20354;-77
2021/04/01 13:19:06;;;;;;;;;;;24.20;51.40;;;;;;5068691;28;19912;-76
2021/04/01 13:24:08;;;;;;;;;;;24.20;52.80;;;;;;5074654;28;19923;-76
2021/04/01 13:26:35;;;;;;;;;;;24.20;51.60;;;;;;5066796;28;20204;-76
2021/04/01 13:29:01;;;;;;;;;;;24.20;51.90;;;;;;5068564;28;19999;-76
2021/04/01 13:34:24;;;;;;;;;;;24.20;51.40;;;;;;5074145;28;19912;-76
2021/04/01 13:39:34;;;;;;;;;;;24.30;51.30;;;;;;5073958;28;19909;-76
2021/04/01 13:44:27;;;;;;;;;;;24.40;51.80;;;;;;5072703;28;19909;-76
2021/04/01 13:46:53;;;;;;;;;;;24.40;51.10;;;;;;5072987;28;19908;-75
2021/04/01 13:49:23;;;;;;;;;;;24.40;51.60;;;;;;5072891;28;19932;-76
2021/04/01 13:51:52;;;;;;;;;;;24.30;50.40;;;;;;5073960;28;19943;-76
2021/04/01 13:57:06;;;;;;;;;;;24.00;51.00;;;;;;5072914;28;20305;-76
2021/04/01 13:59:39;;;;;;;;;;;23.90;52.50;;;;;;5073626;28;19915;-76
2021/04/01 14:10:21;;;;;;;;;;;23.40;52.70;;;;;;5073556;28;20335;-76
2021/04/01 14:12:48;;;;;;;;;;;23.30;52.60;;;;;;5069485;28;19999;-76
2021/04/01 14:15:14;;;;;;;;;;;23.20;53.40;;;;;;5069527;28;19913;-75
2021/04/01 14:17:39;;;;;;;;;;;23.10;52.30;;;;;;5057066;28;19927;-75
2021/04/01 14:20:07;;;;;;;;;;;22.90;53.30;;;;;;5060880;28;20494;-75
2021/04/01 14:22:33;;;;;;;;;;;22.80;52.60;;;;;;5072942;28;20370;-75
2021/04/01 14:25:04;;;;;;;;;;;22.70;53.90;;;;;;5073115;28;19970;-75
2021/04/01 14:27:37;;;;;;;;;;;22.70;53.10;;;;;;5072012;28;19914;-75
2021/04/01 14:30:05;;;;;;;;;;;22.60;53.30;;;;;;5072935;28;20382;-75
2021/04/01 14:32:31;;;;;;;;;;;22.60;54.10;;;;;;5073083;28;20204;-75
2021/04/01 14:34:59;;;;;;;;;;;22.70;55.80;;;;;;5072834;28;20361;-75
2021/04/01 14:37:26;;;;;;;;;;;22.80;53.70;;;;;;5071957;28;19999;-75
2021/04/01 14:39:53;;;;;;;;;;;23.00;53.70;;;;;;5070616;28;19955;-74
2021/04/01 14:42:22;;;;;;;;;;;23.20;52.90;;;;;;5072135;28;19916;-74
2021/04/01 14:44:48;;;;;;;;;;;23.40;52.50;;;;;;5092918;28;19908;-75
2021/04/01 14:47:14;;;;;;;;;;;23.60;52.70;;;;;;5092087;28;19912;-74
2021/04/01 14:49:40;;;;;;;;;;;23.70;52.40;;;;;;5092607;28;19912;-74
2021/04/01 14:52:06;;;;;;;;;;;23.70;51.20;;;;;;5085303;28;19908;-75
2021/04/01 14:54:33;;;;;;;;;;;23.60;51.90;;;;;;5072643;28;19956;-75
2021/04/01 14:57:05;;;;;;;;;;;23.60;52.10;;;;;;5071473;28;19915;-74
2021/04/01 14:59:32;;;;;;;;;;;23.70;51.10;;;;;;5072642;28;20262;-75
2021/04/01 15:01:58;;;;;;;;;;;23.70;51.70;;;;;;5072429;28;19916;-74
2021/04/01 15:04:24;;;;;;;;;;;23.80;52.30;;;;;;5061384;28;19916;-75
2021/04/01 15:06:53;;;;;;;;;;;23.90;52.10;;;;;;5063971;28;19908;-75
2021/04/01 15:09:18;;;;;;;;;;;24.00;52.00;;;;;;5068686;28;20381;-75
2021/04/01 15:11:44;;;;;;;;;;;24.10;52.90;;;;;;5069994;28;19919;-75
2021/04/01 15:14:10;;;;;;;;;;;24.10;52.90;;;;;;5069137;28;19917;-75
2021/04/01 15:16:36;;;;;;;;;;;24.00;52.40;;;;;;5070695;28;20263;-75
2021/04/01 15:19:02;;;;;;;;;;;23.70;51.40;;;;;;5071941;28;20317;-75
2021/04/01 15:21:28;;;;;;;;;;;23.40;52.30;;;;;;5071763;28;19920;-75
2021/04/01 15:23:53;;;;;;;;;;;23.10;53.00;;;;;;5071989;28;19912;-75
2021/04/01 15:26:19;;;;;;;;;;;22.80;53.30;;;;;;5070832;28;20354;-75
2021/04/01 15:28:45;;;;;;;;;;;22.50;53.20;;;;;;5071013;28;19908;-75
2021/04/01 15:31:11;;;;;;;;;;;22.30;53.70;;;;;;5072086;28;19923;-75
2021/04/01 15:33:37;;;;;;;;;;;22.20;53.80;;;;;;5071584;28;19998;-75
2021/04/01 15:36:02;;;;;;;;;;;22.00;54.60;;;;;;5070393;28;20016;-75
2021/04/01 15:38:28;;;;;;;;;;;22.00;54.90;;;;;;5071739;28;20003;-75
2021/04/01 15:40:53;;;;;;;;;;;21.90;54.80;;;;;;5071689;28;20373;-75
2021/04/01 15:43:20;;;;;;;;;;;21.90;55.00;;;;;;5079188;28;19973;-75
2021/04/01 15:45:48;;;;;;;;;;;21.80;55.20;;;;;;5090266;28;19912;-75
2021/04/01 15:48:14;;;;;;;;;;;21.70;54.70;;;;;;5091922;28;20319;-75
2021/04/01 15:50:40;;;;;;;;;;;21.70;54.90;;;;;;5091581;28;19909;-75
2021/04/01 15:53:05;;;;;;;;;;;21.60;55.60;;;;;;5091651;28;20041;-75
2021/04/01 15:55:31;;;;;;;;;;;21.50;55.60;;;;;;5091416;28;19923;-75
2021/04/01 15:57:56;;;;;;;;;;;21.50;55.70;;;;;;5090775;28;19908;-74
2021/04/01 16:00:23;;;;;;;;;;;21.40;55.40;;;;;;5091579;28;19908;-75
2021/04/01 16:02:49;;;;;;;;;;;21.20;56.30;;;;;;5091555;28;19978;-75
2021/04/01 16:05:15;;;;;;;;;;;21.20;55.90;;;;;;5091365;28;19908;-75
2021/04/01 16:07:40;;;;;;;;;;;21.20;56.30;;;;;;5090356;28;19965;-75
2021/04/01 16:10:06;;;;;;;;;;;21.20;56.80;;;;;;5091262;28;19927;-75
2021/04/01 16:12:32;;;;;;;;;;;21.20;56.30;;;;;;5086680;28;19916;-75
2021/04/01 16:14:57;;;;;;;;;;;21.30;57.00;;;;;;5071147;28;19912;-75
2021/04/01 16:17:23;;;;;;;;;;;21.20;56.60;;;;;;5070097;28;19930;-75
2021/04/01 16:19:49;;;;;;;;;;;21.20;56.30;;;;;;5070880;28;19954;-75